CheckWX is a tool to help pilots better visualize weather data.  It is not intended as a substitute for an official pre-flight weather briefing.

17:09:11 UTC

EDNY METAR
Friedrichshafen Airport
Friedrichshafen, Germany
Current

49 mins ago

EDNY 211620Z 20007KT 160V230 CAVOK 27/16 Q1022
Observed
Jul-21 @ 16:20 UTC
Wind
  • 200° at 7 KTS
Visibility
10,000+ meters
Flight Rules
VFR
Cloud Levels
  • Clear skies
Temperature
27°C / 81°F
Dewpoint
16°C / 61°F
Heat Index
28°C / 82°F
Humidity
51%
Altimeter
30.18" Hg
Pressure
1021.92 hPa
Previous

1 hour ago

EDNY 211550Z 19006KT 160V220 CAVOK 27/16 Q1022
Observed
Jul-21 @ 15:50 UTC
Wind
  • 190° at 6 KTS
Visibility
10,000+ meters
Flight Rules
VFR
Cloud Levels
  • Clear skies
Temperature
27°C / 81°F
Dewpoint
16°C / 61°F
Heat Index
28°C / 82°F
Humidity
51%
Altimeter
30.18" Hg
Pressure
1021.92 hPa
Previous

2 hours ago

EDNY 211520Z 21005KT CAVOK 27/17 Q1022
Observed
Jul-21 @ 15:20 UTC
Wind
  • 210° at 5 KTS
Visibility
10,000+ meters
Flight Rules
VFR
Cloud Levels
  • Clear skies
Temperature
27°C / 81°F
Dewpoint
17°C / 63°F
Heat Index
28°C / 82°F
Humidity
54%
Altimeter
30.18" Hg
Pressure
1021.92 hPa